Time;durP1;ratioP1;P1;durP2;ratioP2;P2;SDS_P1;SDS_P2;PMS_P1;PMS_P2;Temp;Humidity;BMP_temperature;BMP_pressure;BME280_temperature;BME280_humidity;BME280_pressure;Samples;Min_cycle;Max_cycle;Signal;HPM_P1;HPM_P2
2023/09/18 00:00:35;;;;;;;7.03;6.32;;;17.50;99.90;;;;;;4972276;28;20035;-81
2023/09/18 00:03:02;;;;;;;6.78;5.68;;;17.50;99.90;;;;;;4973150;28;20675;-81
2023/09/18 00:05:28;;;;;;;6.50;5.80;;;17.50;99.90;;;;;;4972001;28;20038;-81
2023/09/18 00:07:54;;;;;;;6.03;5.43;;;17.50;99.90;;;;;;4956919;28;20067;-82
2023/09/18 00:10:20;;;;;;;6.78;5.55;;;17.50;99.90;;;;;;4957264;28;20058;-81
2023/09/18 00:12:46;;;;;;;6.28;5.68;;;17.50;99.90;;;;;;4971851;28;20023;-82
2023/09/18 00:15:12;;;;;;;6.75;5.78;;;17.50;99.90;;;;;;4956433;28;20047;-81
2023/09/18 00:17:38;;;;;;;7.78;5.80;;;17.50;99.90;;;;;;4973916;28;20038;-81
2023/09/18 00:20:06;;;;;;;6.57;5.97;;;17.40;99.90;;;;;;4955281;28;20050;-80
2023/09/18 00:22:33;;;;;;;7.20;6.40;;;17.40;99.90;;;;;;4971901;28;20059;-81
2023/09/18 00:24:59;;;;;;;6.68;5.95;;;17.30;99.90;;;;;;4973319;28;20519;-80
2023/09/18 00:27:24;;;;;;;7.68;6.57;;;17.30;99.90;;;;;;4956982;28;20042;-80
2023/09/18 00:29:50;;;;;;;7.28;5.90;;;17.30;99.90;;;;;;4954908;28;20041;-82
2023/09/18 00:32:16;;;;;;;6.35;5.63;;;17.30;99.90;;;;;;4976957;28;20038;-81
2023/09/18 00:34:42;;;;;;;6.65;5.82;;;17.30;99.90;;;;;;4953139;28;20419;-81
2023/09/18 00:37:10;;;;;;;6.70;6.00;;;17.30;99.90;;;;;;4973990;28;20070;-81
2023/09/18 00:39:36;;;;;;;7.43;6.22;;;17.30;99.90;;;;;;4931639;28;20488;-81
2023/09/18 00:42:02;;;;;;;6.75;6.07;;;17.30;99.90;;;;;;4953341;28;20042;-80
2023/09/18 00:44:28;;;;;;;10.23;6.20;;;17.30;99.90;;;;;;4936307;28;20050;-81
2023/09/18 00:46:55;;;;;;;9.52;5.95;;;17.30;99.90;;;;;;4972435;28;20062;-79
2023/09/18 00:49:22;;;;;;;6.30;5.70;;;17.30;99.90;;;;;;4973122;28;20062;-81
2023/09/18 00:51:50;;;;;;;7.57;6.55;;;17.30;99.90;;;;;;4961392;28;20129;-82
2023/09/18 00:54:18;;;;;;;6.28;5.68;;;17.40;99.90;;;;;;4972089;28;20034;-81
2023/09/18 00:56:46;;;;;;;6.13;4.65;;;17.50;99.90;;;;;;4974897;28;20035;-81
2023/09/18 00:59:12;;;;;;;6.93;5.53;;;17.50;99.90;;;;;;4970368;28;20043;-81
2023/09/18 01:01:40;;;;;;;5.55;4.95;;;17.50;99.90;;;;;;4957595;28;20035;-81
2023/09/18 01:04:07;;;;;;;9.77;5.38;;;17.50;99.90;;;;;;4971503;28;20022;-80
2023/09/18 01:06:52;;;;;;;8.43;5.65;;;17.40;99.90;;;;;;4969674;28;20089;-81
2023/09/18 01:09:19;;;;;;;6.20;5.60;;;17.30;99.90;;;;;;4936613;28;20034;-80
2023/09/18 01:12:11;;;;;;;6.60;5.90;;;17.20;99.90;;;;;;4972507;28;20077;-81
2023/09/18 01:14:59;;;;;;;6.45;5.85;;;17.20;99.90;;;;;;4952148;28;20290;-81
2023/09/18 01:17:26;;;;;;;11.70;6.30;;;17.30;99.90;;;;;;4972735;28;20043;-80
2023/09/18 01:19:52;;;;;;;6.97;6.28;;;17.30;99.90;;;;;;4973910;28;20089;-82
2023/09/18 01:22:19;;;;;;;7.25;6.00;;;17.30;99.90;;;;;;4959466;28;20047;-82
2023/09/18 01:24:49;;;;;;;6.40;5.70;;;17.40;99.90;;;;;;4953487;28;20031;-79
2023/09/18 01:27:18;;;;;;;8.60;4.93;;;17.40;99.90;;;;;;4975409;28;20491;-81
2023/09/18 01:29:45;;;;;;;5.03;4.53;;;17.40;99.90;;;;;;4970082;28;20591;-81
2023/09/18 01:32:11;;;;;;;5.35;4.80;;;17.30;99.90;;;;;;4957016;28;20086;-80
2023/09/18 01:34:41;;;;;;;7.88;4.78;;;17.30;99.90;;;;;;4957874;28;20520;-79
2023/09/18 01:37:09;;;;;;;5.63;4.72;;;17.30;99.90;;;;;;4973569;28;20128;-80
2023/09/18 01:39:36;;;;;;;6.00;4.88;;;17.10;99.90;;;;;;4954244;28;20034;-79
2023/09/18 01:42:06;;;;;;;5.90;5.00;;;17.10;99.90;;;;;;4959188;28;20046;-81
2023/09/18 01:44:33;;;;;;;5.80;4.80;;;17.10;99.90;;;;;;4971103;28;20031;-81
2023/09/18 01:47:02;;;;;;;5.80;4.80;;;17.00;99.90;;;;;;4972004;28;20111;-80
2023/09/18 01:49:39;;;;;;;5.18;4.60;;;16.90;99.90;;;;;;4953628;28;20031;-81
2023/09/18 01:52:08;;;;;;;6.70;5.15;;;16.80;99.90;;;;;;4956035;28;20026;-82
2023/09/18 01:54:34;;;;;;;5.85;5.25;;;16.80;99.90;;;;;;4957417;28;20077;-80
2023/09/18 01:57:01;;;;;;;6.82;5.10;;;16.80;99.90;;;;;;4927137;28;20042;-81
2023/09/18 01:59:27;;;;;;;4.80;4.35;;;16.70;99.90;;;;;;4950452;28;20026;-80
2023/09/18 02:01:53;;;;;;;5.50;4.90;;;16.70;99.90;;;;;;4971498;28;20142;-82
2023/09/18 02:04:20;;;;;;;6.38;4.80;;;16.70;99.90;;;;;;4969520;28;20030;-80
2023/09/18 02:06:48;;;;;;;5.75;5.18;;;16.60;99.90;;;;;;4952724;28;20077;-80
2023/09/18 02:09:13;;;;;;;6.60;5.35;;;16.60;99.90;;;;;;4948957;28;20031;-80
2023/09/18 02:11:41;;;;;;;6.30;5.70;;;16.50;99.90;;;;;;4953828;28;20101;-81
2023/09/18 02:14:09;;;;;;;6.63;6.03;;;16.50;99.90;;;;;;4955456;28;20038;-80
2023/09/18 02:16:45;;;;;;;7.30;6.53;;;16.50;99.90;;;;;;4950307;28;20027;-82
2023/09/18 02:19:13;;;;;;;7.47;6.15;;;16.50;99.90;;;;;;4955137;28;20039;-80
2023/09/18 02:21:40;;;;;;;7.68;5.72;;;16.50;99.90;;;;;;4958012;28;20031;-80
2023/09/18 02:24:06;;;;;;;6.75;5.57;;;16.50;99.90;;;;;;4973096;28;20043;-81
2023/09/18 02:26:32;;;;;;;5.93;5.32;;;16.60;99.90;;;;;;4952026;28;20078;-79
2023/09/18 02:29:01;;;;;;;6.80;5.70;;;16.60;99.90;;;;;;4958734;28;20038;-80
2023/09/18 02:31:27;;;;;;;10.00;6.22;;;16.60;99.90;;;;;;4955893;28;20126;-82
2023/09/18 02:33:54;;;;;;;5.93;5.43;;;16.60;99.90;;;;;;4941861;28;20114;-81
2023/09/18 02:36:19;;;;;;;6.13;5.53;;;16.60;99.90;;;;;;4953376;28;20126;-83
2023/09/18 02:38:48;;;;;;;6.75;5.03;;;16.70;99.90;;;;;;4953506;28;20121;-81
2023/09/18 02:41:14;;;;;;;5.97;5.38;;;16.70;99.90;;;;;;4971598;28;20121;-82
2023/09/18 02:43:39;;;;;;;6.55;5.30;;;16.80;99.90;;;;;;4963830;28;20039;-80
2023/09/18 02:46:06;;;;;;;5.97;5.28;;;16.80;99.90;;;;;;4970912;28;20023;-81
2023/09/18 02:48:32;;;;;;;5.18;4.68;;;16.80;99.90;;;;;;4955300;28;20602;-81
2023/09/18 02:51:02;;;;;;;6.07;5.47;;;16.90;99.90;;;;;;4954924;28;20507;-80
2023/09/18 02:53:28;;;;;;;6.97;4.90;;;16.80;99.90;;;;;;4956183;28;20027;-81
2023/09/18 02:55:57;;;;;;;8.05;5.15;;;16.90;99.90;;;;;;4939144;28;20046;-81
2023/09/18 02:58:25;;;;;;;6.38;5.38;;;16.80;99.90;;;;;;4954392;28;20574;-82
2023/09/18 03:00:53;;;;;;;5.53;5.00;;;16.80;99.90;;;;;;4940569;28;20031;-81
2023/09/18 03:03:19;;;;;;;5.88;5.20;;;16.80;99.90;;;;;;4951205;28;20027;-80
2023/09/18 03:05:45;;;;;;;6.55;5.32;;;16.80;99.90;;;;;;4957028;28;20561;-81
2023/09/18 03:08:13;;;;;;;5.65;5.15;;;16.80;99.90;;;;;;4954497;28;20039;-80
2023/09/18 03:10:40;;;;;;;6.35;5.53;;;16.70;99.90;;;;;;4956864;28;20494;-79
2023/09/18 03:13:08;;;;;;;6.30;5.40;;;16.70;99.90;;;;;;4974947;28;20392;-81
2023/09/18 03:15:35;;;;;;;6.63;5.32;;;16.70;99.90;;;;;;4971871;28;20097;-79
2023/09/18 03:18:04;;;;;;;6.78;5.68;;;16.70;99.90;;;;;;4967329;28;20046;-80
2023/09/18 03:20:30;;;;;;;5.95;5.35;;;16.80;99.90;;;;;;4955966;28;20023;-81
2023/09/18 03:22:58;;;;;;;6.55;5.32;;;16.80;99.90;;;;;;4947122;28;20027;-81
2023/09/18 03:25:24;;;;;;;6.25;5.15;;;16.90;99.90;;;;;;4954304;28;20027;-80
2023/09/18 03:27:52;;;;;;;5.72;5.03;;;16.90;99.90;;;;;;4958675;28;20481;-81
2023/09/18 03:30:19;;;;;;;5.60;4.47;;;16.90;99.90;;;;;;4973761;28;20035;-80
2023/09/18 03:32:48;;;;;;;4.72;4.28;;;16.80;99.90;;;;;;4958959;28;20026;-81
2023/09/18 03:35:18;;;;;;;4.97;4.47;;;16.80;99.90;;;;;;4955000;28;20043;-82
2023/09/18 03:37:49;;;;;;;4.05;3.70;;;16.70;99.90;;;;;;4958205;28;20460;-81
2023/09/18 03:40:17;;;;;;;5.65;4.60;;;16.70;99.90;;;;;;4963797;28;20042;-82
2023/09/18 03:43:01;;;;;;;6.43;4.57;;;16.60;99.90;;;;;;4977237;28;20082;-81
2023/09/18 03:45:27;;;;;;;4.65;4.25;;;16.50;99.90;;;;;;4968740;28;20027;-81
2023/09/18 03:47:53;;;;;;;4.50;4.07;;;16.40;99.90;;;;;;4955106;28;20027;-82
2023/09/18 03:50:19;;;;;;;5.35;4.85;;;16.40;99.90;;;;;;4955883;28;20105;-83
2023/09/18 03:52:45;;;;;;;4.93;4.38;;;16.40;99.90;;;;;;4963326;28;20486;-80
2023/09/18 03:55:11;;;;;;;4.43;4.03;;;16.30;99.90;;;;;;4972788;28;20039;-80
2023/09/18 03:57:39;;;;;;;4.85;3.97;;;16.30;99.90;;;;;;4982188;28;20023;-80
2023/09/18 04:00:07;;;;;;;4.30;3.90;;;16.30;99.90;;;;;;4955895;28;20031;-80
2023/09/18 04:02:37;;;;;;;5.40;4.60;;;16.20;99.90;;;;;;4965686;28;20054;-81
2023/09/18 04:05:03;;;;;;;4.85;4.30;;;16.20;99.90;;;;;;4939246;28;20035;-80
2023/09/18 04:07:29;;;;;;;4.78;4.38;;;16.20;99.90;;;;;;4958330;28;20035;-80
2023/09/18 04:09:56;;;;;;;4.50;4.00;;;16.20;99.90;;;;;;4971981;28;20158;-78
2023/09/18 04:12:21;;;;;;;4.40;4.00;;;16.20;99.90;;;;;;4956804;28;20035;-80
2023/09/18 04:14:47;;;;;;;4.10;3.75;;;16.20;99.90;;;;;;4971026;28;20035;-80
2023/09/18 04:17:13;;;;;;;5.63;4.78;;;16.20;99.90;;;;;;4960779;28;20074;-79
2023/09/18 04:19:39;;;;;;;6.57;4.40;;;16.10;99.90;;;;;;4959709;28;20057;-79
2023/09/18 04:22:05;;;;;;;4.43;4.03;;;16.10;99.90;;;;;;4958041;28;20031;-81
2023/09/18 04:24:31;;;;;;;4.45;4.10;;;16.10;99.90;;;;;;4944939;28;20522;-79
2023/09/18 04:26:57;;;;;;;5.97;4.45;;;16.10;99.90;;;;;;4963445;28;20042;-79
2023/09/18 04:29:23;;;;;;;5.85;4.60;;;16.00;99.90;;;;;;4966952;28;20031;-79
2023/09/18 04:31:50;;;;;;;5.40;4.60;;;16.00;99.90;;;;;;4973287;28;20038;-81
2023/09/18 04:34:16;;;;;;;4.43;4.03;;;16.00;99.90;;;;;;4952559;28;20047;-79
2023/09/18 04:36:43;;;;;;;5.50;4.38;;;16.00;99.90;;;;;;4974027;28;20086;-81
2023/09/18 04:39:09;;;;;;;4.97;4.30;;;16.00;99.90;;;;;;4956299;28;20041;-78
2023/09/18 04:41:35;;;;;;;5.43;4.45;;;16.10;99.90;;;;;;4958883;28;20034;-81
2023/09/18 04:44:05;;;;;;;4.78;4.38;;;16.10;99.90;;;;;;4956704;28;20039;-81
2023/09/18 04:46:35;;;;;;;5.40;4.80;;;16.10;99.90;;;;;;4964178;28;20026;-80
2023/09/18 04:49:03;;;;;;;5.93;4.20;;;16.10;99.90;;;;;;4956104;28;20037;-79
2023/09/18 04:51:32;;;;;;;5.57;4.68;;;16.20;99.90;;;;;;4958776;28;20106;-82
2023/09/18 04:53:59;;;;;;;5.85;4.43;;;16.30;99.90;;;;;;4954373;28;20039;-79
2023/09/18 04:56:26;;;;;;;4.70;4.25;;;16.40;99.90;;;;;;4958713;28;20698;-82
2023/09/18 04:58:52;;;;;;;4.97;4.50;;;16.50;99.90;;;;;;4955966;28;20081;-81
2023/09/18 05:01:18;;;;;;;4.68;4.15;;;16.50;99.90;;;;;;4928947;28;20039;-79
2023/09/18 05:03:45;;;;;;;5.15;4.65;;;16.60;99.90;;;;;;4940318;28;20109;-80
2023/09/18 05:06:11;;;;;;;4.88;4.38;;;16.70;99.90;;;;;;4957416;28;20055;-80
2023/09/18 05:08:37;;;;;;;4.82;4.38;;;16.70;99.90;;;;;;4973284;28;20589;-79
2023/09/18 05:11:03;;;;;;;6.50;3.95;;;16.70;99.90;;;;;;4976012;28;20031;-80
2023/09/18 05:13:29;;;;;;;3.90;3.50;;;16.70;99.90;;;;;;4973333;28;20043;-82
2023/09/18 05:15:55;;;;;;;4.38;3.97;;;16.60;99.90;;;;;;4959605;28;20027;-80
2023/09/18 05:18:21;;;;;;;4.97;3.72;;;16.60;99.90;;;;;;4968049;28;20038;-79
2023/09/18 05:20:47;;;;;;;4.90;4.10;;;16.60;99.90;;;;;;4951847;28;20075;-80
2023/09/18 05:23:13;;;;;;;4.22;3.83;;;16.60;99.90;;;;;;4971247;28;20034;-80
2023/09/18 05:25:41;;;;;;;4.40;4.00;;;16.50;99.90;;;;;;4974005;28;20487;-80
2023/09/18 05:28:07;;;;;;;4.13;3.72;;;16.50;99.90;;;;;;4966558;28;20035;-80
2023/09/18 05:30:35;;;;;;;4.25;3.85;;;16.50;99.90;;;;;;4953619;28;20038;-81
2023/09/18 05:33:05;;;;;;;3.90;3.60;;;16.60;99.90;;;;;;4971059;28;20070;-80
2023/09/18 05:35:36;;;;;;;6.72;3.50;;;16.60;99.90;;;;;;4952682;28;20053;-80
2023/09/18 05:38:03;;;;;;;4.00;3.55;;;16.70;99.90;;;;;;4971622;28;20162;-81
2023/09/18 05:40:29;;;;;;;6.00;4.13;;;16.90;99.90;;;;;;4968700;28;20031;-82
2023/09/18 05:42:56;;;;;;;4.55;4.15;;;17.00;99.90;;;;;;4969743;28;20027;-80
2023/09/18 05:45:22;;;;;;;4.20;3.80;;;17.20;99.90;;;;;;4968834;28;20181;-81
2023/09/18 05:47:49;;;;;;;4.15;3.78;;;17.20;99.90;;;;;;4969775;28;20122;-81
2023/09/18 05:50:16;;;;;;;4.75;3.55;;;17.30;99.90;;;;;;4972149;28;20382;-80
2023/09/18 05:52:51;;;;;;;4.25;3.85;;;17.30;99.90;;;;;;4972028;28;20074;-80
2023/09/18 05:55:17;;;;;;;6.13;4.22;;;17.30;99.90;;;;;;4965944;28;20050;-79
2023/09/18 05:57:45;;;;;;;4.78;3.40;;;17.40;99.90;;;;;;4968114;28;20035;-80
2023/09/18 06:00:16;;;;;;;4.25;3.85;;;17.50;99.90;;;;;;4967281;28;20459;-80
2023/09/18 06:02:41;;;;;;;6.97;4.13;;;17.60;99.90;;;;;;4968333;28;20018;-80
2023/09/18 06:05:11;;;;;;;3.83;3.42;;;17.60;99.90;;;;;;4970783;28;20479;-80
2023/09/18 06:07:37;;;;;;;3.78;3.20;;;17.70;99.90;;;;;;4968847;28;20034;-80
2023/09/18 06:10:03;;;;;;;3.95;3.55;;;17.70;99.90;;;;;;4976570;28;20043;-79
2023/09/18 06:12:30;;;;;;;3.85;3.45;;;17.60;99.90;;;;;;4972322;28;20031;-80
2023/09/18 06:14:55;;;;;;;4.32;3.83;;;17.60;99.90;;;;;;4975777;28;20027;-79
2023/09/18 06:17:21;;;;;;;4.03;3.55;;;17.70;99.90;;;;;;4943954;28;20093;-80
2023/09/18 06:19:47;;;;;;;3.97;3.63;;;17.70;99.90;;;;;;4970729;28;20027;-79
2023/09/18 06:22:14;;;;;;;3.45;3.15;;;17.70;99.90;;;;;;4979124;28;20023;-80
2023/09/18 06:24:39;;;;;;;3.90;3.60;;;17.70;99.90;;;;;;4970483;28;20026;-80
2023/09/18 06:27:05;;;;;;;4.00;3.50;;;17.60;99.90;;;;;;4968797;28;20035;-80
2023/09/18 06:29:33;;;;;;;4.35;3.72;;;17.60;99.90;;;;;;4969193;28;20081;-80
2023/09/18 06:31:59;;;;;;;4.07;3.63;;;17.70;99.90;;;;;;4971381;28;20513;-80
2023/09/18 06:34:25;;;;;;;4.40;3.80;;;17.70;99.90;;;;;;4969515;28;20038;-80
2023/09/18 06:36:51;;;;;;;4.15;3.75;;;17.70;99.90;;;;;;4972490;28;20058;-80
2023/09/18 06:39:17;;;;;;;5.82;3.90;;;17.70;99.90;;;;;;4965992;28;20459;-79
2023/09/18 06:41:42;;;;;;;4.10;3.70;;;17.80;99.90;;;;;;4967832;28;20034;-80
2023/09/18 06:44:11;;;;;;;4.53;4.07;;;17.90;99.90;;;;;;4950767;28;20031;-80
2023/09/18 06:46:37;;;;;;;5.25;3.97;;;18.00;99.90;;;;;;4971602;28;20053;-80
2023/09/18 06:49:03;;;;;;;4.68;4.13;;;18.10;99.90;;;;;;4966292;28;20054;-79
2023/09/18 06:51:29;;;;;;;4.70;4.30;;;18.20;99.90;;;;;;4948855;28;20062;-79
2023/09/18 06:53:57;;;;;;;5.25;4.25;;;18.30;99.90;;;;;;4967193;28;20523;-78
2023/09/18 06:56:25;;;;;;;6.10;4.65;;;18.30;99.90;;;;;;4969232;28;20381;-80
2023/09/18 06:58:51;;;;;;;4.40;4.00;;;18.30;99.90;;;;;;4968577;28;20122;-79
2023/09/18 07:01:20;;;;;;;4.50;4.10;;;18.30;99.90;;;;;;4971780;28;20166;-80
2023/09/18 07:03:47;;;;;;;4.45;4.05;;;18.30;99.90;;;;;;4960513;28;20042;-80
2023/09/18 07:06:23;;;;;;;4.53;4.13;;;18.30;99.90;;;;;;4964717;28;20024;-80
2023/09/18 07:08:49;;;;;;;4.60;4.22;;;18.30;99.90;;;;;;4970403;28;20086;-80
2023/09/18 07:11:16;;;;;;;4.60;4.20;;;18.40;99.90;;;;;;4969978;28;20035;-79
2023/09/18 07:13:43;;;;;;;3.97;3.67;;;18.30;99.90;;;;;;4969246;28;20122;-79
2023/09/18 07:16:10;;;;;;;5.38;4.43;;;18.30;99.90;;;;;;4956280;28;20044;-79
2023/09/18 07:18:36;;;;;;;4.70;4.15;;;18.40;99.90;;;;;;4969626;28;20061;-80
2023/09/18 07:21:01;;;;;;;4.90;4.50;;;18.40;99.90;;;;;;4970516;28;20475;-80
2023/09/18 07:23:27;;;;;;;4.97;4.05;;;18.40;99.90;;;;;;4970826;28;20034;-79
2023/09/18 07:25:53;;;;;;;5.15;4.55;;;18.40;99.90;;;;;;4969431;28;20648;-79
2023/09/18 07:28:19;;;;;;;4.63;3.90;;;18.50;99.90;;;;;;4970107;28;20130;-79
2023/09/18 07:30:46;;;;;;;4.78;4.32;;;18.50;99.90;;;;;;4971990;28;20057;-79
2023/09/18 07:33:15;;;;;;;4.90;4.40;;;18.50;99.90;;;;;;4969984;28;20074;-79
2023/09/18 07:35:41;;;;;;;4.35;3.95;;;18.50;99.90;;;;;;4970164;28;20035;-79
2023/09/18 07:38:07;;;;;;;5.88;4.30;;;18.50;99.90;;;;;;4975286;28;20038;-80
2023/09/18 07:40:34;;;;;;;5.28;4.78;;;18.60;99.90;;;;;;4973157;28;20291;-80
2023/09/18 07:42:59;;;;;;;6.32;5.35;;;18.50;99.90;;;;;;4947413;28;20110;-80
2023/09/18 07:45:25;;;;;;;5.95;4.68;;;18.50;99.90;;;;;;4966622;28;20611;-80
2023/09/18 07:47:51;;;;;;;4.85;4.35;;;18.40;99.90;;;;;;4967075;28;20019;-79
2023/09/18 07:50:17;;;;;;;5.20;4.70;;;18.50;99.90;;;;;;4967734;28;20031;-79
2023/09/18 07:52:43;;;;;;;4.47;4.07;;;18.60;99.90;;;;;;4963376;28;20144;-80
2023/09/18 07:55:09;;;;;;;4.90;3.90;;;18.60;99.90;;;;;;4967328;28;20587;-80
2023/09/18 07:57:37;;;;;;;7.22;4.30;;;18.60;99.90;;;;;;4968588;28;20039;-79
2023/09/18 08:00:07;;;;;;;4.47;4.13;;;18.60;99.90;;;;;;4969605;28;20055;-79
2023/09/18 08:02:38;;;;;;;5.35;4.85;;;18.70;99.90;;;;;;4971863;28;20031;-80
2023/09/18 08:05:05;;;;;;;5.28;4.63;;;18.70;99.90;;;;;;4967355;28;20045;-80
2023/09/18 08:07:30;;;;;;;6.70;4.90;;;18.70;99.90;;;;;;4969136;28;20033;-80
2023/09/18 08:09:56;;;;;;;4.75;4.15;;;18.80;99.90;;;;;;4972589;28;20572;-81
2023/09/18 08:12:24;;;;;;;6.40;4.55;;;18.80;99.90;;;;;;4976065;28;20177;-81
2023/09/18 08:14:50;;;;;;;5.65;4.53;;;18.80;99.90;;;;;;4972456;28;20106;-82
2023/09/18 08:17:16;;;;;;;5.25;4.75;;;18.80;99.90;;;;;;4971200;28;20047;-80
2023/09/18 08:19:44;;;;;;;6.68;5.03;;;18.90;99.90;;;;;;4971711;28;20082;-81
2023/09/18 08:22:11;;;;;;;5.28;4.70;;;18.90;99.90;;;;;;4976311;28;20043;-82
2023/09/18 08:24:37;;;;;;;7.72;4.68;;;19.00;99.90;;;;;;4975418;28;20034;-82
2023/09/18 08:27:03;;;;;;;6.93;4.88;;;19.10;99.90;;;;;;4971136;28;20176;-81
2023/09/18 08:29:29;;;;;;;6.90;4.20;;;19.20;99.90;;;;;;4972631;28;20042;-80
2023/09/18 08:31:55;;;;;;;6.70;4.47;;;19.30;99.90;;;;;;4973412;28;20039;-81
2023/09/18 08:34:20;;;;;;;5.68;4.82;;;19.40;99.90;;;;;;4961311;28;20048;-80
2023/09/18 08:36:46;;;;;;;6.25;4.63;;;19.50;99.90;;;;;;4943645;28;20156;-80
2023/09/18 08:39:12;;;;;;;4.50;4.15;;;19.60;99.90;;;;;;4976649;28;20031;-79
2023/09/18 08:41:41;;;;;;;5.45;4.80;;;19.70;99.90;;;;;;4975239;28;20487;-79
2023/09/18 08:44:08;;;;;;;6.10;4.82;;;19.70;99.90;;;;;;4974236;28;20436;-80
2023/09/18 08:46:35;;;;;;;6.03;4.35;;;19.80;99.90;;;;;;4960033;28;20034;-80
2023/09/18 08:49:02;;;;;;;5.15;4.63;;;20.00;99.90;;;;;;4971037;28;20047;-80
2023/09/18 08:51:28;;;;;;;5.55;4.18;;;20.30;99.90;;;;;;4974227;28;20751;-81
2023/09/18 08:53:56;;;;;;;6.82;4.85;;;20.40;99.90;;;;;;4977422;28;20030;-83
2023/09/18 08:56:22;;;;;;;4.97;4.47;;;20.40;99.90;;;;;;4976914;28;20041;-81
2023/09/18 08:58:48;;;;;;;5.30;4.80;;;20.50;99.90;;;;;;4984313;28;20050;-82
2023/09/18 09:01:14;;;;;;;5.95;4.45;;;20.70;99.90;;;;;;4979889;28;20041;-81
2023/09/18 09:03:42;;;;;;;5.82;4.30;;;20.80;99.90;;;;;;4969769;28;20055;-80
2023/09/18 09:06:09;;;;;;;5.07;4.57;;;21.00;99.90;;;;;;4970691;28;20129;-80
2023/09/18 09:08:36;;;;;;;5.55;4.72;;;21.10;99.90;;;;;;4970396;28;20081;-81
2023/09/18 09:11:03;;;;;;;5.68;5.10;;;21.30;99.90;;;;;;4967533;28;20037;-81
2023/09/18 09:13:30;;;;;;;5.28;4.68;;;21.50;99.90;;;;;;4972843;28;20034;-81
2023/09/18 09:15:57;;;;;;;5.47;4.07;;;21.60;99.90;;;;;;4974266;28;20045;-81
2023/09/18 09:18:28;;;;;;;5.03;4.30;;;21.80;99.90;;;;;;4974529;28;20038;-79
2023/09/18 09:21:01;;;;;;;6.43;4.40;;;21.90;99.90;;;;;;4975666;28;20395;-79
2023/09/18 09:23:29;;;;;;;10.30;4.82;;;22.10;99.90;;;;;;4971332;28;20353;-79
2023/09/18 09:26:13;;;;;;;6.30;3.97;;;22.30;99.90;;;;;;4975500;28;20038;-79
2023/09/18 09:28:39;;;;;;;7.93;4.57;;;22.40;99.90;;;;;;4973515;28;20035;-79
2023/09/18 09:31:05;;;;;;;7.10;4.43;;;22.60;99.90;;;;;;4975080;28;20034;-79
2023/09/18 09:33:31;;;;;;;6.93;4.00;;;22.70;99.90;;;;;;4975200;28;20030;-79
2023/09/18 09:35:57;;;;;;;5.45;4.10;;;22.90;99.90;;;;;;4974942;28;20050;-79
2023/09/18 09:38:33;;;;;;;6.22;4.00;;;23.00;99.90;;;;;;4974643;28;20082;-79
2023/09/18 09:41:04;;;;;;;8.40;4.28;;;23.10;99.90;;;;;;4976852;28;20034;-78
2023/09/18 09:43:34;;;;;;;4.40;3.05;;;23.20;99.90;;;;;;4975111;28;20018;-79
2023/09/18 09:46:01;;;;;;;5.20;3.80;;;23.30;99.90;;;;;;4979096;28;20039;-79
2023/09/18 09:48:30;;;;;;;5.43;4.13;;;23.30;99.90;;;;;;4981165;28;20479;-79
2023/09/18 09:51:00;;;;;;;7.03;3.05;;;23.30;99.90;;;;;;4976490;28;20092;-79
2023/09/18 09:53:52;;;;;;;8.05;2.88;;;23.40;99.90;;;;;;4974173;28;20503;-79
2023/09/18 09:56:19;;;;;;;3.78;2.13;;;23.40;99.90;;;;;;4974092;28;20467;-79
2023/09/18 09:58:59;;;;;;;9.02;2.72;;;23.50;99.90;;;;;;4973852;28;20287;-79
2023/09/18 10:01:27;;;;;;;4.95;2.33;;;23.60;99.90;;;;;;4960017;28;20038;-80
2023/09/18 10:03:54;;;;;;;4.50;2.08;;;23.70;99.90;;;;;;4974427;28;20023;-79
2023/09/18 10:06:21;;;;;;;5.53;2.30;;;23.80;99.90;;;;;;4974974;28;20066;-79
2023/09/18 10:08:47;;;;;;;5.53;2.63;;;23.90;99.90;;;;;;4975520;28;20046;-79
2023/09/18 10:11:16;;;;;;;8.40;2.60;;;23.90;99.90;;;;;;4978805;28;20422;-79
2023/09/18 10:13:57;;;;;;;6.30;2.60;;;23.90;99.90;;;;;;4974509;28;20049;-80
2023/09/18 10:16:27;;;;;;;3.13;2.67;;;24.00;99.90;;;;;;4974185;28;20496;-80
2023/09/18 10:18:57;;;;;;;6.13;2.38;;;24.00;99.90;;;;;;4973866;28;20439;-83
2023/09/18 10:21:41;;;;;;;5.63;2.88;;;24.00;99.90;;;;;;4977491;28;20483;-80
2023/09/18 10:24:19;;;;;;;7.90;2.78;;;23.90;99.90;;;;;;4971994;28;20098;-83
2023/09/18 10:27:11;;;;;;;6.38;2.42;;;23.90;99.90;;;;;;4970457;28;20518;-79
2023/09/18 10:29:37;;;;;;;4.43;2.45;;;23.70;99.90;;;;;;4969715;28;20026;-81
2023/09/18 10:32:13;;;;;;;6.32;2.63;;;23.80;99.90;;;;;;4951715;28;20408;-81
2023/09/18 10:34:40;;;;;;;5.78;2.55;;;23.80;99.90;;;;;;4952541;28;20133;-80
2023/09/18 10:37:09;;;;;;;3.63;2.22;;;23.80;99.90;;;;;;4972298;28;20046;-78
2023/09/18 10:39:37;;;;;;;6.50;1.98;;;23.90;99.90;;;;;;4970517;28;20699;-81
2023/09/18 10:42:05;;;;;;;7.15;1.20;;;23.90;99.90;;;;;;4966255;28;20125;-79
2023/09/18 10:44:31;;;;;;;3.63;1.20;;;24.00;99.90;;;;;;4966559;28;20102;-80
2023/09/18 10:46:58;;;;;;;4.75;1.50;;;24.10;99.90;;;;;;4970699;28;20050;-80
2023/09/18 10:49:25;;;;;;;6.95;1.70;;;24.10;99.90;;;;;;4971970;28;20092;-79
2023/09/18 10:51:54;;;;;;;3.58;1.23;;;24.20;99.90;;;;;;4972098;28;20027;-79
2023/09/18 10:54:22;;;;;;;4.20;1.40;;;24.20;99.90;;;;;;4972215;28;20026;-79
2023/09/18 10:56:48;;;;;;;8.55;1.85;;;24.20;99.90;;;;;;4969081;28;20034;-81
2023/09/18 10:59:15;;;;;;;5.32;1.38;;;24.20;99.90;;;;;;4972141;28;20023;-80
2023/09/18 11:01:42;;;;;;;5.18;1.50;;;24.20;99.90;;;;;;4952116;28;20050;-80
2023/09/18 11:04:10;;;;;;;5.75;2.33;;;24.10;99.90;;;;;;4971829;28;20019;-79
2023/09/18 11:06:54;;;;;;;4.38;2.10;;;24.00;99.90;;;;;;4956929;28;20053;-78
2023/09/18 11:09:27;;;;;;;5.40;1.85;;;23.90;99.90;;;;;;4969776;28;20034;-79
2023/09/18 11:11:57;;;;;;;2.45;1.67;;;23.80;99.90;;;;;;4970063;28;20031;-79
2023/09/18 11:14:46;;;;;;;4.40;1.67;;;23.70;99.90;;;;;;4970227;28;20023;-77
2023/09/18 11:17:43;;;;;;;4.03;3.33;;;23.60;99.90;;;;;;4969535;28;20031;-78
2023/09/18 11:20:24;;;;;;;5.55;2.00;;;23.50;99.90;;;;;;4937741;28;20051;-77
2023/09/18 11:23:15;;;;;;;2.28;1.70;;;23.50;99.90;;;;;;4967776;28;20022;-77
2023/09/18 11:25:42;;;;;;;3.72;2.13;;;23.30;99.90;;;;;;4968795;28;20521;-79
2023/09/18 11:28:24;;;;;;;5.07;2.22;;;23.20;99.90;;;;;;4970826;28;20086;-81
2023/09/18 11:30:51;;;;;;;2.40;1.63;;;23.20;99.90;;;;;;4969670;28;20037;-79
2023/09/18 11:33:40;;;;;;;6.25;2.20;;;23.20;99.90;;;;;;4958416;28;20030;-80
2023/09/18 11:36:30;;;;;;;2.67;1.70;;;23.20;99.90;;;;;;4968045;28;20053;-80
2023/09/18 11:38:57;;;;;;;3.92;1.80;;;23.20;99.90;;;;;;4951629;28;20130;-80
2023/09/18 11:41:30;;;;;;;5.20;2.10;;;23.20;99.90;;;;;;4969305;28;20043;-81
2023/09/18 11:44:14;;;;;;;5.07;1.85;;;23.20;99.90;;;;;;4971821;28;20059;-79
2023/09/18 11:46:45;;;;;;;5.60;2.03;;;23.40;99.90;;;;;;4960255;28;20462;-80
2023/09/18 11:49:12;;;;;;;3.47;1.88;;;23.40;99.90;;;;;;4973952;28;20038;-82
2023/09/18 11:51:38;;;;;;;4.93;2.05;;;23.40;99.90;;;;;;4974192;28;20023;-79
2023/09/18 11:54:07;;;;;;;4.97;2.28;;;23.40;99.90;;;;;;4973525;28;20054;-80
2023/09/18 11:56:35;;;;;;;3.58;1.85;;;23.40;99.90;;;;;;4973820;28;20514;-80
2023/09/18 11:59:04;;;;;;;5.97;1.73;;;23.40;99.90;;;;;;4961641;28;20503;-81
2023/09/18 12:01:31;;;;;;;1.95;1.40;;;23.40;99.90;;;;;;4976174;28;20578;-79
2023/09/18 12:04:01;;;;;;;7.22;1.20;;;23.40;99.90;;;;;;4964752;28;20432;-81
2023/09/18 12:06:27;;;;;;;7.63;1.23;;;23.40;99.90;;;;;;4968431;28;20019;-80
2023/09/18 12:08:53;;;;;;;3.05;1.10;;;23.30;99.90;;;;;;4937248;28;20506;-80
2023/09/18 12:11:21;;;;;;;2.65;1.05;;;23.30;99.90;;;;;;4970500;28;20492;-80
2023/09/18 12:13:57;;;;;;;2.90;1.10;;;23.30;99.90;;;;;;4970837;28;20129;-79
2023/09/18 12:16:23;;;;;;;4.60;1.15;;;23.20;99.90;;;;;;4974665;28;20045;-80
2023/09/18 12:18:50;;;;;;;3.00;0.88;;;23.20;99.90;;;;;;4971155;28;20066;-79
2023/09/18 12:21:17;;;;;;;1.48;0.80;;;23.10;99.90;;;;;;4976140;28;20474;-79
2023/09/18 12:23:45;;;;;;;2.40;0.75;;;23.10;99.90;;;;;;4971789;28;20028;-79
2023/09/18 12:26:13;;;;;;;2.65;0.90;;;23.00;99.90;;;;;;4968456;28;20027;-79
2023/09/18 12:28:43;;;;;;;3.30;0.93;;;23.00;99.90;;;;;;4969206;28;20050;-80
2023/09/18 12:31:15;;;;;;;2.47;1.05;;;22.90;99.90;;;;;;4966937;28;20138;-81
2023/09/18 12:33:43;;;;;;;3.78;1.08;;;22.80;99.90;;;;;;4961980;28;20507;-78
2023/09/18 12:36:10;;;;;;;3.70;0.80;;;22.70;99.90;;;;;;4951562;28;20102;-79
2023/09/18 12:38:37;;;;;;;3.60;0.93;;;22.70;99.90;;;;;;4950567;28;20054;-80
2023/09/18 12:41:07;;;;;;;3.22;0.90;;;22.60;99.90;;;;;;4967201;28;20435;-79
2023/09/18 12:43:41;;;;;;;2.83;0.73;;;22.60;99.90;;;;;;4967741;28;20866;-80
2023/09/18 12:46:08;;;;;;;3.03;0.93;;;22.50;99.90;;;;;;4965857;28;20039;-79
2023/09/18 12:48:38;;;;;;;2.42;1.00;;;22.50;99.90;;;;;;4960402;28;20031;-79
2023/09/18 12:51:07;;;;;;;6.78;0.90;;;22.30;99.90;;;;;;4968639;28;20290;-80